Time;durP1;ratioP1;P1;durP2;ratioP2;P2;SDS_P1;SDS_P2;PMS_P1;PMS_P2;Temp;Humidity;BMP_temperature;BMP_pressure;BME280_temperature;BME280_humidity;BME280_pressure;Samples;Min_cycle;Max_cycle;Signal;HPM_P1;HPM_P2
2023/02/02 00:01:33;;;;;;;5.90;2.70;;;5.20;99.90;;;;;;5024646;28;21777;-69
2023/02/02 00:03:59;;;;;;;9.50;2.27;;;5.20;99.90;;;;;;5026946;28;20570;-69
2023/02/02 00:06:26;;;;;;;5.77;2.07;;;5.20;99.90;;;;;;5026349;28;20903;-69
2023/02/02 00:08:52;;;;;;;5.60;2.43;;;5.20;99.90;;;;;;5027165;28;20874;-68
2023/02/02 00:11:18;;;;;;;5.43;3.50;;;5.20;99.90;;;;;;5026421;28;20809;-69
2023/02/02 00:13:44;;;;;;;10.30;3.00;;;5.20;99.90;;;;;;5026290;28;20439;-69
2023/02/02 00:16:27;;;;;;;9.50;2.77;;;5.20;99.90;;;;;;5022626;28;20982;-69
2023/02/02 00:18:55;;;;;;;3.50;1.83;;;5.20;99.90;;;;;;5020031;28;20193;-69
2023/02/02 00:21:21;;;;;;;5.47;2.13;;;5.30;99.90;;;;;;5019461;28;20434;-69
2023/02/02 00:23:46;;;;;;;6.10;2.47;;;5.30;99.90;;;;;;5024488;28;20436;-69
2023/02/02 00:26:12;;;;;;;5.93;2.80;;;5.30;99.90;;;;;;5024030;28;20451;-69
2023/02/02 00:28:37;;;;;;;8.10;2.50;;;5.30;99.90;;;;;;5026748;28;20700;-68
2023/02/02 00:31:03;;;;;;;9.00;3.17;;;5.30;99.90;;;;;;5030208;28;20186;-69
2023/02/02 00:33:29;;;;;;;4.23;2.20;;;5.30;99.90;;;;;;5028527;28;20240;-69
2023/02/02 00:35:54;;;;;;;7.20;2.60;;;5.40;99.90;;;;;;5025867;28;20653;-69
2023/02/02 00:38:20;;;;;;;7.97;2.60;;;5.40;99.90;;;;;;5015240;28;20198;-69
2023/02/02 00:40:45;;;;;;;11.43;2.70;;;5.40;99.90;;;;;;5021493;28;20355;-69
2023/02/02 00:43:11;;;;;;;10.10;3.70;;;5.40;99.90;;;;;;5020914;28;20183;-69
2023/02/02 00:45:37;;;;;;;9.43;3.23;;;5.40;99.90;;;;;;5026914;28;20261;-69
2023/02/02 00:48:03;;;;;;;8.07;2.30;;;5.40;99.90;;;;;;5028779;28;20337;-69
2023/02/02 00:50:28;;;;;;;8.80;2.87;;;5.40;99.90;;;;;;5030884;28;20939;-68
2023/02/02 00:52:54;;;;;;;9.83;2.90;;;5.50;99.90;;;;;;5030970;28;20445;-69
2023/02/02 00:55:20;;;;;;;7.97;3.40;;;5.40;99.90;;;;;;5018573;28;20566;-68
2023/02/02 00:57:46;;;;;;;3.73;2.73;;;5.50;99.90;;;;;;5027167;28;20220;-68
2023/02/02 01:00:17;;;;;;;6.70;1.87;;;5.50;99.90;;;;;;5031880;28;20457;-69
2023/02/02 01:02:43;;;;;;;8.13;2.90;;;5.50;99.90;;;;;;5020934;28;20433;-68
2023/02/02 01:05:10;;;;;;;8.33;2.23;;;5.60;99.90;;;;;;5023131;28;20447;-69
2023/02/02 01:07:35;;;;;;;5.87;2.23;;;5.60;99.90;;;;;;5025508;28;20946;-68
2023/02/02 01:10:01;;;;;;;11.73;2.50;;;5.60;99.90;;;;;;5032855;28;20491;-68
2023/02/02 01:12:26;;;;;;;4.40;1.83;;;5.60;99.90;;;;;;5033850;28;20190;-69
2023/02/02 01:14:52;;;;;;;4.50;2.37;;;5.60;99.90;;;;;;5030308;28;20174;-68
2023/02/02 01:17:18;;;;;;;5.43;2.47;;;5.60;99.90;;;;;;5029905;28;20659;-69
2023/02/02 01:19:43;;;;;;;4.10;2.00;;;5.60;99.90;;;;;;5026257;28;20242;-69
2023/02/02 01:22:09;;;;;;;6.63;2.50;;;5.60;99.90;;;;;;5027515;28;20179;-69
2023/02/02 01:24:34;;;;;;;3.43;2.10;;;5.60;99.90;;;;;;5025993;28;20185;-69
2023/02/02 01:27:00;;;;;;;2.90;1.80;;;5.50;99.90;;;;;;5031772;28;20243;-69
2023/02/02 01:29:26;;;;;;;6.97;2.73;;;5.40;99.90;;;;;;5019600;28;20206;-68
2023/02/02 01:31:51;;;;;;;10.83;3.27;;;5.30;99.90;;;;;;5025407;28;20186;-69
2023/02/02 01:34:17;;;;;;;5.77;2.30;;;5.30;99.90;;;;;;5027410;28;20187;-69
2023/02/02 01:36:43;;;;;;;8.07;2.30;;;5.20;99.90;;;;;;5029601;28;20183;-69
2023/02/02 01:39:08;;;;;;;4.80;2.10;;;5.10;99.90;;;;;;5029294;28;20244;-68
2023/02/02 01:41:34;;;;;;;7.67;2.30;;;5.10;99.90;;;;;;5022704;28;20189;-68
2023/02/02 01:44:02;;;;;;;4.67;1.80;;;5.00;99.90;;;;;;5020174;28;20649;-69
2023/02/02 01:46:30;;;;;;;7.17;2.83;;;5.00;99.90;;;;;;5030236;28;20194;-68
2023/02/02 01:49:10;;;;;;;7.70;2.37;;;5.00;99.90;;;;;;5032684;28;20532;-69
2023/02/02 01:51:52;;;;;;;7.03;3.10;;;5.00;99.90;;;;;;5021716;28;20476;-69
2023/02/02 01:54:30;;;;;;;5.50;2.50;;;5.00;99.90;;;;;;5024152;28;20915;-68
2023/02/02 01:56:59;;;;;;;2.50;1.83;;;4.90;99.90;;;;;;5025680;28;20469;-68
2023/02/02 01:59:27;;;;;;;2.70;1.53;;;4.90;99.90;;;;;;5022451;28;20468;-68
2023/02/02 02:01:53;;;;;;;4.73;2.33;;;5.00;99.90;;;;;;5025227;28;20445;-68
2023/02/02 02:04:20;;;;;;;3.87;1.80;;;5.00;99.90;;;;;;5025219;28;20513;-69
2023/02/02 02:06:47;;;;;;;2.57;1.97;;;5.00;99.90;;;;;;5025642;28;20967;-68
2023/02/02 02:09:13;;;;;;;4.70;1.60;;;5.00;99.90;;;;;;5025092;28;20472;-69
2023/02/02 02:11:38;;;;;;;7.03;1.80;;;5.00;99.90;;;;;;5021986;28;20504;-68
2023/02/02 02:17:16;;;;;;;4.03;1.87;;;5.00;99.90;;;;;;5020536;28;20502;-69
2023/02/02 02:29:02;;;;;;;3.27;1.87;;;5.10;99.90;;;;;;5018370;28;20942;-68
2023/02/02 02:31:51;;;;;;;2.67;1.80;;;5.10;99.90;;;;;;5027613;28;20436;-68
2023/02/02 02:34:38;;;;;;;10.03;3.70;;;5.20;99.90;;;;;;5022127;28;20528;-69
2023/02/02 02:37:35;;;;;;;3.33;1.87;;;5.10;99.90;;;;;;5023862;28;21045;-68
2023/02/02 02:40:07;;;;;;;7.83;2.10;;;5.10;99.90;;;;;;5018735;28;20464;-69
2023/02/02 02:42:38;;;;;;;3.43;2.10;;;5.10;99.90;;;;;;5025505;28;20468;-68
2023/02/02 02:45:06;;;;;;;8.13;1.90;;;5.20;99.90;;;;;;5027150;28;20426;-68
2023/02/02 02:47:33;;;;;;;5.03;1.70;;;5.20;99.90;;;;;;5021452;28;20440;-68
2023/02/02 02:49:58;;;;;;;3.17;2.17;;;5.20;99.90;;;;;;5019824;28;20461;-69
2023/02/02 02:52:24;;;;;;;8.30;2.83;;;5.20;99.90;;;;;;5024274;28;20441;-69
2023/02/02 02:54:55;;;;;;;2.57;1.70;;;5.20;99.90;;;;;;5024826;28;20864;-68
2023/02/02 02:57:20;;;;;;;1.87;1.30;;;5.20;99.90;;;;;;5026482;28;20179;-68
2023/02/02 03:00:15;;;;;;;4.80;1.63;;;5.20;99.90;;;;;;5021618;28;20469;-68
2023/02/02 03:02:46;;;;;;;3.90;1.63;;;5.20;99.90;;;;;;5019620;28;20205;-68
2023/02/02 03:05:37;;;;;;;3.33;1.30;;;5.20;99.90;;;;;;5025323;28;20432;-69
2023/02/02 03:08:16;;;;;;;2.83;2.63;;;5.30;99.90;;;;;;5027039;28;20870;-69
2023/02/02 03:10:44;;;;;;;2.60;1.50;;;5.30;99.90;;;;;;5022674;28;20436;-68
2023/02/02 03:13:11;;;;;;;3.30;1.30;;;5.30;99.90;;;;;;5025529;28;20656;-69
2023/02/02 03:15:41;;;;;;;4.83;1.33;;;5.30;99.90;;;;;;5026212;28;20440;-69
2023/02/02 03:18:06;;;;;;;1.20;1.10;;;5.30;99.90;;;;;;5026538;28;20843;-69
2023/02/02 03:20:33;;;;;;;3.27;1.27;;;5.40;99.90;;;;;;5025682;28;20472;-69
2023/02/02 03:22:59;;;;;;;1.20;0.93;;;5.40;99.90;;;;;;5022036;28;20624;-69
2023/02/02 03:25:24;;;;;;;1.87;1.20;;;5.40;99.90;;;;;;5025903;28;20523;-68
2023/02/02 03:27:51;;;;;;;2.70;1.63;;;5.40;99.90;;;;;;5022917;28;20193;-69
2023/02/02 03:30:17;;;;;;;4.17;2.07;;;5.50;99.90;;;;;;5025315;28;20194;-69
2023/02/02 03:32:44;;;;;;;3.27;1.20;;;5.40;99.90;;;;;;5028833;28;20432;-68
2023/02/02 03:35:09;;;;;;;2.87;1.20;;;5.50;99.90;;;;;;5029013;28;20489;-68
2023/02/02 03:37:35;;;;;;;4.27;1.47;;;5.50;99.90;;;;;;5026157;28;20946;-68
2023/02/02 03:40:00;;;;;;;1.87;1.33;;;5.50;99.90;;;;;;5025821;28;20194;-69
2023/02/02 03:42:26;;;;;;;2.37;1.00;;;5.50;99.90;;;;;;5026614;28;20183;-68
2023/02/02 03:44:51;;;;;;;1.80;1.70;;;5.50;99.90;;;;;;5026573;28;20680;-69
2023/02/02 03:47:17;;;;;;;2.00;1.20;;;5.50;99.90;;;;;;5030277;28;20600;-69
2023/02/02 03:49:42;;;;;;;1.40;1.30;;;5.50;99.90;;;;;;5019250;28;20205;-69
2023/02/02 03:52:08;;;;;;;5.60;1.37;;;5.50;99.90;;;;;;5022798;28;20186;-69
2023/02/02 03:54:33;;;;;;;1.33;1.23;;;5.50;99.90;;;;;;5024388;28;20178;-68
2023/02/02 03:56:59;;;;;;;3.57;1.67;;;5.50;99.90;;;;;;5029715;28;20198;-68
2023/02/02 03:59:25;;;;;;;1.63;1.37;;;5.50;99.90;;;;;;5024967;28;20714;-69
2023/02/02 04:01:50;;;;;;;1.67;1.10;;;5.50;99.90;;;;;;5022384;28;20443;-68
2023/02/02 04:04:16;;;;;;;1.57;1.20;;;5.50;99.90;;;;;;5014577;28;20210;-69
2023/02/02 04:06:41;;;;;;;6.67;1.60;;;5.50;99.90;;;;;;5022033;28;20197;-68
2023/02/02 04:09:07;;;;;;;1.43;1.30;;;5.50;99.90;;;;;;5017154;28;20569;-69
2023/02/02 04:11:32;;;;;;;3.97;1.53;;;5.50;99.90;;;;;;5027203;28;20175;-69
2023/02/02 04:13:58;;;;;;;3.50;1.43;;;5.60;99.90;;;;;;5029569;28;20228;-69
2023/02/02 04:16:23;;;;;;;3.00;1.20;;;5.60;99.90;;;;;;5021070;28;20595;-69
2023/02/02 04:18:49;;;;;;;3.80;1.50;;;5.60;99.90;;;;;;5018426;28;20199;-69
2023/02/02 04:21:14;;;;;;;1.53;1.20;;;5.60;99.90;;;;;;5030027;28;20268;-69
2023/02/02 04:23:40;;;;;;;4.30;1.63;;;5.60;99.90;;;;;;5023565;28;20182;-68
2023/02/02 04:26:05;;;;;;;3.60;1.30;;;5.60;99.90;;;;;;5028557;28;20544;-69
2023/02/02 04:28:31;;;;;;;3.00;1.80;;;5.60;99.90;;;;;;5028833;28;20214;-69
2023/02/02 04:30:57;;;;;;;2.97;1.37;;;5.60;99.90;;;;;;5032784;28;20193;-68
2023/02/02 04:33:24;;;;;;;3.43;1.63;;;5.70;99.90;;;;;;5032061;28;20208;-68
2023/02/02 04:35:50;;;;;;;2.00;1.60;;;5.70;99.90;;;;;;5026456;28;20665;-69
2023/02/02 04:38:15;;;;;;;3.77;1.40;;;5.70;99.90;;;;;;5027759;28;20467;-68
2023/02/02 04:40:43;;;;;;;3.83;1.17;;;5.70;99.90;;;;;;5030178;28;20456;-68
2023/02/02 04:43:09;;;;;;;4.73;1.40;;;5.70;99.90;;;;;;5022919;28;20183;-68
2023/02/02 04:45:35;;;;;;;7.60;2.00;;;5.70;99.90;;;;;;5021797;28;20433;-69
2023/02/02 04:48:01;;;;;;;3.30;1.40;;;5.70;99.90;;;;;;5025562;28;20459;-69
2023/02/02 04:50:27;;;;;;;2.53;1.67;;;5.70;99.90;;;;;;5028061;28;20241;-69
2023/02/02 04:52:52;;;;;;;4.83;2.13;;;5.70;99.90;;;;;;5033327;28;20852;-69
2023/02/02 04:55:18;;;;;;;4.27;1.60;;;5.70;99.90;;;;;;5033212;28;20514;-68
2023/02/02 04:57:43;;;;;;;4.23;1.43;;;5.70;99.90;;;;;;5033411;28;20193;-69
2023/02/02 05:00:10;;;;;;;2.00;1.23;;;5.70;99.90;;;;;;5025881;28;20256;-69
2023/02/02 05:02:37;;;;;;;2.80;1.60;;;5.70;99.90;;;;;;5033092;28;20182;-68
2023/02/02 05:05:05;;;;;;;5.57;3.40;;;5.70;99.90;;;;;;5032551;28;20922;-69
2023/02/02 05:07:30;;;;;;;2.87;1.33;;;5.70;99.90;;;;;;5019938;28;20422;-69
2023/02/02 05:09:56;;;;;;;2.67;1.93;;;5.70;99.90;;;;;;5031406;28;20441;-69
2023/02/02 05:12:21;;;;;;;1.50;1.40;;;5.70;99.90;;;;;;5034358;28;20182;-68
2023/02/02 05:14:47;;;;;;;3.10;1.53;;;5.70;99.90;;;;;;5025369;28;20206;-69
2023/02/02 05:17:12;;;;;;;2.60;1.97;;;5.70;99.90;;;;;;5023673;28;20656;-69
2023/02/02 05:19:38;;;;;;;2.50;1.30;;;5.70;99.90;;;;;;5023102;28;20198;-69
2023/02/02 05:22:03;;;;;;;4.60;1.60;;;5.70;99.90;;;;;;5028806;28;20201;-69
2023/02/02 05:24:29;;;;;;;3.50;1.63;;;5.70;99.90;;;;;;5023877;28;20193;-68
2023/02/02 05:26:59;;;;;;;3.80;1.60;;;5.70;99.90;;;;;;5027035;28;20254;-68
2023/02/02 05:29:26;;;;;;;4.67;1.90;;;5.70;99.90;;;;;;5028695;28;20206;-69
2023/02/02 05:31:51;;;;;;;10.63;2.67;;;5.70;99.90;;;;;;5023453;28;20441;-68
2023/02/02 05:34:17;;;;;;;3.13;1.77;;;5.70;99.90;;;;;;5027088;28;20528;-69
2023/02/02 05:36:42;;;;;;;6.43;3.60;;;5.70;99.90;;;;;;5026447;28;20434;-69
2023/02/02 05:39:08;;;;;;;5.07;2.50;;;5.70;99.90;;;;;;5024358;28;20304;-68
2023/02/02 05:41:34;;;;;;;3.17;2.33;;;5.70;99.90;;;;;;5021266;28;20583;-68
2023/02/02 05:44:00;;;;;;;5.23;2.20;;;5.70;99.90;;;;;;5023871;28;20496;-69
2023/02/02 05:46:26;;;;;;;6.83;2.33;;;5.70;99.90;;;;;;5025029;28;20696;-69
2023/02/02 05:48:52;;;;;;;6.50;2.50;;;5.70;99.90;;;;;;5023692;28;20460;-69
2023/02/02 05:51:22;;;;;;;5.77;2.30;;;5.60;99.90;;;;;;5027160;28;20205;-68
2023/02/02 05:53:47;;;;;;;5.83;2.40;;;5.60;99.90;;;;;;5020215;28;20747;-68
2023/02/02 05:56:14;;;;;;;5.00;2.37;;;5.60;99.90;;;;;;5027164;28;20455;-69
2023/02/02 05:58:40;;;;;;;2.50;2.27;;;5.60;99.90;;;;;;5025498;28;20873;-68
2023/02/02 06:01:07;;;;;;;9.77;2.80;;;5.50;99.90;;;;;;5021852;28;20552;-69
2023/02/02 06:03:32;;;;;;;3.30;2.40;;;5.60;99.90;;;;;;5017211;28;20456;-69
2023/02/02 06:05:58;;;;;;;3.10;2.30;;;5.60;99.90;;;;;;5026087;28;20975;-68
2023/02/02 06:08:24;;;;;;;1.47;1.37;;;5.60;99.90;;;;;;5028441;28;20206;-68
2023/02/02 06:10:49;;;;;;;4.17;2.10;;;5.60;99.90;;;;;;5025524;28;20445;-69
2023/02/02 06:13:15;;;;;;;5.30;2.00;;;5.50;99.90;;;;;;5027413;28;20178;-69
2023/02/02 06:15:42;;;;;;;3.47;2.20;;;5.50;99.90;;;;;;5021981;28;20190;-68
2023/02/02 06:18:08;;;;;;;4.10;2.50;;;5.50;99.90;;;;;;5013103;28;20203;-68
2023/02/02 06:20:33;;;;;;;5.90;2.40;;;5.50;99.90;;;;;;5019894;28;20479;-68
2023/02/02 06:22:59;;;;;;;5.47;2.70;;;5.50;99.90;;;;;;5025807;28;20801;-68
2023/02/02 06:25:24;;;;;;;2.83;2.57;;;5.50;99.90;;;;;;5022884;28;20189;-68
2023/02/02 06:27:57;;;;;;;7.40;2.37;;;5.50;99.90;;;;;;5022888;28;20206;-68
2023/02/02 06:30:23;;;;;;;5.97;2.37;;;5.50;99.90;;;;;;5025320;28;20175;-68
2023/02/02 06:32:49;;;;;;;6.00;3.20;;;5.60;99.90;;;;;;5025161;28;20452;-69
2023/02/02 06:35:15;;;;;;;3.30;2.40;;;5.60;99.90;;;;;;5026553;28;20229;-68
2023/02/02 06:37:40;;;;;;;3.23;2.77;;;5.50;99.90;;;;;;5029499;28;20190;-68
2023/02/02 06:40:07;;;;;;;5.23;2.60;;;5.50;99.90;;;;;;5022190;28;20202;-68
2023/02/02 06:42:34;;;;;;;5.20;2.20;;;5.60;99.90;;;;;;5022481;28;20182;-69
2023/02/02 06:45:00;;;;;;;6.00;2.03;;;5.60;99.90;;;;;;5022058;28;20852;-68
2023/02/02 06:47:26;;;;;;;4.67;2.47;;;5.60;99.90;;;;;;5025234;28;20473;-68
2023/02/02 06:49:51;;;;;;;7.10;3.80;;;5.60;99.90;;;;;;5020141;28;20643;-68
2023/02/02 06:52:17;;;;;;;2.67;2.07;;;5.60;99.90;;;;;;5020067;28;20194;-68
2023/02/02 06:54:42;;;;;;;5.67;2.67;;;5.70;99.90;;;;;;5029011;28;20624;-68
2023/02/02 06:57:08;;;;;;;5.50;2.20;;;5.70;99.90;;;;;;5027851;28;20208;-68
2023/02/02 06:59:34;;;;;;;2.77;2.20;;;5.70;99.90;;;;;;5029756;28;20217;-68
2023/02/02 07:01:59;;;;;;;6.80;2.97;;;5.70;99.90;;;;;;5019017;28;20175;-68
2023/02/02 07:04:25;;;;;;;2.80;1.73;;;5.70;99.90;;;;;;5031307;28;20543;-68
2023/02/02 07:06:50;;;;;;;3.77;2.23;;;5.80;99.90;;;;;;5028189;28;20707;-68
2023/02/02 07:09:16;;;;;;;2.20;1.90;;;5.80;99.90;;;;;;5022143;28;20284;-68
2023/02/02 07:11:42;;;;;;;5.63;2.17;;;5.90;99.90;;;;;;5027411;28;20174;-68
2023/02/02 07:14:08;;;;;;;6.07;1.57;;;5.90;99.90;;;;;;5029520;28;20536;-68
2023/02/02 07:16:33;;;;;;;3.03;1.53;;;5.80;99.90;;;;;;5021378;28;20237;-69
2023/02/02 07:18:59;;;;;;;2.70;1.63;;;5.80;99.90;;;;;;5027951;28;20978;-68
2023/02/02 07:21:28;;;;;;;4.60;2.03;;;5.80;99.90;;;;;;5033084;28;20177;-68
2023/02/02 07:23:53;;;;;;;4.20;1.93;;;5.80;99.90;;;;;;5023175;28;20194;-68
2023/02/02 07:26:19;;;;;;;2.73;1.27;;;5.80;99.90;;;;;;5026292;28;20972;-68
2023/02/02 07:28:46;;;;;;;3.40;1.30;;;5.90;99.90;;;;;;5018891;28;20205;-67
2023/02/02 07:31:17;;;;;;;3.43;1.80;;;5.80;99.90;;;;;;5022115;28;20437;-68
2023/02/02 07:33:44;;;;;;;2.50;1.57;;;5.80;99.90;;;;;;5025360;28;20441;-68
2023/02/02 07:36:17;;;;;;;5.10;2.43;;;5.90;99.90;;;;;;5031916;28;20792;-68
2023/02/02 07:38:44;;;;;;;7.23;2.67;;;5.80;99.90;;;;;;5031323;28;20983;-68
2023/02/02 07:41:10;;;;;;;2.97;2.60;;;5.90;99.90;;;;;;5031858;28;20459;-68
2023/02/02 07:43:36;;;;;;;5.07;2.33;;;5.80;99.90;;;;;;5031818;28;20938;-67
2023/02/02 07:46:03;;;;;;;2.20;2.00;;;5.90;99.90;;;;;;5031819;28;20167;-68
2023/02/02 07:48:29;;;;;;;2.20;1.90;;;5.90;99.90;;;;;;5031125;28;20194;-68
2023/02/02 07:51:01;;;;;;;4.40;2.43;;;5.90;99.90;;;;;;5022641;28;20471;-68
2023/02/02 07:53:27;;;;;;;7.40;2.60;;;5.90;99.90;;;;;;5012529;28;20957;-68
2023/02/02 07:55:52;;;;;;;4.43;2.23;;;5.90;99.90;;;;;;5025134;28;20452;-68
2023/02/02 07:58:18;;;;;;;4.60;2.23;;;6.00;99.90;;;;;;5035411;28;20455;-68
2023/02/02 08:00:44;;;;;;;4.17;3.17;;;6.00;99.90;;;;;;5035508;28;20274;-68
2023/02/02 08:03:12;;;;;;;4.90;4.50;;;6.00;99.90;;;;;;5035425;28;20600;-68
2023/02/02 08:05:37;;;;;;;4.60;2.43;;;6.00;99.90;;;;;;5035342;28;20198;-67
2023/02/02 08:08:03;;;;;;;3.90;2.03;;;6.00;99.90;;;;;;5035443;28;20848;-68
2023/02/02 08:10:29;;;;;;;5.70;2.40;;;6.10;99.90;;;;;;5033134;28;20199;-68
2023/02/02 08:12:54;;;;;;;6.27;2.37;;;6.20;99.90;;;;;;5035209;28;20170;-68
2023/02/02 08:15:20;;;;;;;4.70;2.90;;;6.20;99.90;;;;;;5035280;28;20177;-68
2023/02/02 08:17:48;;;;;;;3.63;2.33;;;6.20;99.90;;;;;;5035265;28;20617;-68
2023/02/02 08:20:14;;;;;;;3.50;2.30;;;6.30;99.90;;;;;;5033126;28;20198;-69
2023/02/02 08:22:40;;;;;;;4.90;2.10;;;6.30;99.90;;;;;;5034553;28;20428;-68
2023/02/02 08:25:06;;;;;;;6.50;2.37;;;6.30;99.90;;;;;;5035078;28;20416;-68
2023/02/02 08:27:32;;;;;;;4.93;1.90;;;6.40;99.90;;;;;;5035151;28;20188;-68
2023/02/02 08:29:57;;;;;;;6.47;2.40;;;6.50;99.90;;;;;;5035391;28;20918;-67
2023/02/02 08:32:23;;;;;;;6.27;2.90;;;6.60;99.90;;;;;;5038926;28;20178;-67
2023/02/02 08:34:50;;;;;;;3.13;2.30;;;6.60;99.90;;;;;;5035086;28;20232;-68
2023/02/02 08:37:16;;;;;;;5.13;2.40;;;6.60;99.90;;;;;;5035155;28;20640;-68
2023/02/02 08:39:42;;;;;;;5.03;1.97;;;6.60;99.90;;;;;;5033955;28;20568;-68
2023/02/02 08:42:07;;;;;;;8.73;2.53;;;6.60;99.90;;;;;;5040390;28;20648;-68
2023/02/02 08:44:33;;;;;;;4.30;2.73;;;6.70;99.90;;;;;;5034817;28;20916;-68
2023/02/02 08:46:58;;;;;;;2.73;2.50;;;6.60;99.90;;;;;;5034484;28;20178;-68
2023/02/02 08:49:24;;;;;;;5.03;2.27;;;6.60;99.90;;;;;;5034033;28;20615;-68
2023/02/02 08:51:50;;;;;;;2.67;2.00;;;6.60;99.90;;;;;;5033281;28;20174;-68
2023/02/02 08:54:15;;;;;;;5.00;2.50;;;6.60;99.90;;;;;;5034376;28;20515;-68
2023/02/02 08:56:41;;;;;;;3.33;2.53;;;6.60;99.90;;;;;;5034412;28;20252;-68
2023/02/02 08:59:06;;;;;;;5.43;2.50;;;6.60;99.90;;;;;;5033522;28;20201;-68
2023/02/02 09:01:33;;;;;;;4.27;2.50;;;6.70;99.90;;;;;;5040833;28;20181;-67
2023/02/02 09:04:05;;;;;;;5.20;2.67;;;6.70;99.90;;;;;;5054379;28;20624;-68
2023/02/02 09:06:36;;;;;;;5.40;3.10;;;6.60;99.90;;;;;;5047109;28;20470;-67
2023/02/02 09:09:03;;;;;;;11.57;3.30;;;6.70;99.90;;;;;;5033375;28;20930;-67
2023/02/02 09:11:29;;;;;;;12.00;3.30;;;6.70;99.90;;;;;;5042640;28;20506;-67
2023/02/02 09:13:57;;;;;;;3.33;2.67;;;6.70;99.90;;;;;;5029179;28;20580;-67
2023/02/02 09:16:24;;;;;;;3.17;2.07;;;6.70;99.90;;;;;;5014702;28;20187;-67
2023/02/02 09:18:50;;;;;;;4.57;2.30;;;6.80;99.90;;;;;;5021496;28;20453;-67
2023/02/02 09:21:17;;;;;;;9.50;3.60;;;6.80;99.90;;;;;;5026789;28;20943;-67
2023/02/02 09:23:44;;;;;;;4.50;2.17;;;6.80;99.90;;;;;;5035627;28;20177;-67
2023/02/02 09:26:13;;;;;;;4.93;2.30;;;6.70;99.90;;;;;;5023759;28;20515;-67
2023/02/02 09:28:42;;;;;;;4.90;2.60;;;6.70;99.90;;;;;;5031849;28;20437;-67
2023/02/02 09:31:08;;;;;;;6.57;2.80;;;6.70;99.90;;;;;;5038355;28;20991;-67
2023/02/02 09:33:34;;;;;;;9.63;3.20;;;6.80;99.90;;;;;;5023031;28;20933;-67
2023/02/02 09:36:05;;;;;;;5.33;2.80;;;6.80;99.90;;;;;;5053356;28;20431;-67
2023/02/02 09:38:30;;;;;;;8.70;3.80;;;6.80;99.90;;;;;;5034767;28;20451;-67
2023/02/02 09:40:56;;;;;;;10.10;3.70;;;6.90;99.90;;;;;;5020859;28;20460;-67
2023/02/02 09:43:44;;;;;;;14.07;2.80;;;6.90;99.90;;;;;;5032848;28;20185;-68
2023/02/02 09:46:35;;;;;;;6.83;3.37;;;7.00;99.90;;;;;;5033026;28;20304;-67
2023/02/02 09:49:06;;;;;;;8.67;2.53;;;6.90;99.90;;;;;;5030665;28;20977;-67
2023/02/02 09:51:39;;;;;;;8.33;3.53;;;6.90;99.90;;;;;;5034243;28;20504;-67
2023/02/02 09:54:18;;;;;;;6.93;4.00;;;6.90;99.90;;;;;;5033405;28;20421;-67
2023/02/02 09:56:45;;;;;;;9.23;3.13;;;6.80;99.90;;;;;;5032293;28;20451;-67
2023/02/02 09:59:24;;;;;;;8.80;2.67;;;6.80;99.90;;;;;;5032480;28;20441;-67
2023/02/02 10:01:54;;;;;;;10.93;6.57;;;6.70;99.90;;;;;;5028955;28;20466;-67
2023/02/02 10:04:34;;;;;;;7.70;3.33;;;6.80;99.90;;;;;;5032698;28;20424;-67
2023/02/02 10:07:11;;;;;;;7.50;3.20;;;6.70;99.90;;;;;;5033261;28;20435;-67
2023/02/02 10:10:02;;;;;;;6.57;3.27;;;6.70;99.90;;;;;;5023117;28;20814;-67
2023/02/02 10:12:34;;;;;;;3.73;2.73;;;6.60;99.90;;;;;;5027702;28;20918;-67
2023/02/02 10:15:21;;;;;;;7.33;3.20;;;6.70;99.90;;;;;;5026123;28;21026;-67
2023/02/02 10:17:57;;;;;;;3.37;3.13;;;6.70;99.90;;;;;;5031663;28;20445;-67
2023/02/02 10:20:33;;;;;;;6.20;2.83;;;6.70;99.90;;;;;;5030153;28;20515;-67
2023/02/02 10:23:11;;;;;;;4.27;2.73;;;6.80;99.90;;;;;;5019815;28;20417;-67
2023/02/02 10:25:42;;;;;;;5.67;3.17;;;6.80;99.90;;;;;;5019612;28;20490;-67
2023/02/02 10:28:17;;;;;;;5.53;3.00;;;6.90;99.90;;;;;;5022750;28;20449;-67
2023/02/02 10:30:54;;;;;;;4.73;3.23;;;7.00;99.90;;;;;;5014942;28;20450;-67
2023/02/02 10:33:32;;;;;;;4.80;2.73;;;7.00;99.90;;;;;;5049726;28;20415;-68
2023/02/02 10:36:08;;;;;;;6.77;2.60;;;7.00;99.90;;;;;;5032230;28;20443;-67
2023/02/02 10:38:45;;;;;;;4.63;3.00;;;7.00;99.90;;;;;;5031585;28;20436;-67
2023/02/02 10:41:37;;;;;;;6.50;2.80;;;7.00;99.90;;;;;;5028906;28;22054;-67
2023/02/02 10:44:15;;;;;;;5.40;2.47;;;7.00;99.90;;;;;;5032417;28;20420;-67
2023/02/02 10:46:50;;;;;;;2.67;2.47;;;7.00;99.90;;;;;;5031199;28;20515;-67
2023/02/02 10:49:32;;;;;;;9.43;3.63;;;7.10;99.90;;;;;;5031471;28;20440;-67
2023/02/02 10:52:10;;;;;;;6.73;3.00;;;7.10;99.90;;;;;;5028448;28;20425;-68
2023/02/02 10:55:05;;;;;;;5.40;2.90;;;7.00;99.90;;;;;;5012654;28;20498;-68
2023/02/02 10:57:50;;;;;;;4.07;2.50;;;6.90;99.90;;;;;;5011656;28;20846;-67
2023/02/02 11:00:24;;;;;;;2.40;2.20;;;6.90;99.90;;;;;;5012600;28;21092;-68
2023/02/02 11:02:51;;;;;;;2.60;2.20;;;6.90;99.90;;;;;;5042842;28;20914;-68
2023/02/02 11:08:16;;;;;;;3.50;2.00;;;6.70;99.90;;;;;;5032094;28;20439;-68
2023/02/02 11:10:43;;;;;;;5.40;2.30;;;6.70;99.90;;;;;;5020828;28;20447;-67
2023/02/02 11:13:15;;;;;;;5.87;3.37;;;6.70;99.90;;;;;;5030362;28;20424;-66
2023/02/02 11:15:41;;;;;;;5.37;2.20;;;6.70;99.90;;;;;;5021458;28;20487;-68
2023/02/02 11:18:27;;;;;;;4.47;2.33;;;6.70;99.90;;;;;;5031774;28;20531;-67
2023/02/02 11:20:52;;;;;;;2.03;1.87;;;6.80;99.90;;;;;;5026499;28;20332;-66
2023/02/02 11:23:20;;;;;;;5.87;2.43;;;6.90;99.90;;;;;;5031011;28;20520;-66
2023/02/02 11:25:59;;;;;;;7.17;2.77;;;6.90;99.90;;;;;;5031520;28;20263;-66
2023/02/02 11:28:29;;;;;;;6.73;3.07;;;6.80;99.90;;;;;;5024117;28;20477;-68
2023/02/02 11:30:55;;;;;;;4.53;2.77;;;6.90;99.90;;;;;;5011141;28;20464;-67
2023/02/02 11:33:33;;;;;;;4.40;2.80;;;6.90;99.90;;;;;;5030619;28;20432;-66
2023/02/02 11:36:00;;;;;;;5.20;3.70;;;6.80;99.90;;;;;;5030587;28;20474;-66
2023/02/02 11:38:26;;;;;;;9.40;4.07;;;6.80;99.90;;;;;;5031010;28;20451;-67
2023/02/02 11:40:56;;;;;;;4.53;2.80;;;6.80;99.90;;;;;;5024395;28;20468;-67
2023/02/02 11:43:32;;;;;;;2.93;2.63;;;6.70;99.90;;;;;;5031298;28;20425;-67
2023/02/02 11:46:04;;;;;;;8.23;3.77;;;6.70;99.90;;;;;;5030190;28;20519;-67
2023/02/02 11:48:34;;;;;;;7.23;4.63;;;6.70;99.90;;;;;;5030010;28;20448;-67
2023/02/02 11:51:01;;;;;;;4.07;2.67;;;6.70;99.90;;;;;;5034652;28;20971;-67
2023/02/02 11:53:31;;;;;;;4.30;2.90;;;6.70;99.90;;;;;;5030361;28;20511;-67
2023/02/02 11:56:29;;;;;;;4.40;2.33;;;6.60;99.90;;;;;;5029255;28;20946;-67
2023/02/02 11:58:58;;;;;;;5.67;2.70;;;6.60;99.90;;;;;;5013568;28;20952;-67
2023/02/02 12:01:35;;;;;;;5.60;3.50;;;6.60;99.90;;;;;;5024797;28;20509;-68
2023/02/02 12:04:23;;;;;;;5.83;2.53;;;6.60;99.90;;;;;;5040656;28;20928;-67
2023/02/02 12:06:49;;;;;;;4.53;2.60;;;6.60;99.90;;;;;;5029714;28;20421;-68
2023/02/02 12:09:23;;;;;;;9.33;3.20;;;6.60;99.90;;;;;;5030196;28;20445;-68
2023/02/02 12:12:06;;;;;;;4.80;2.60;;;6.50;99.90;;;;;;5027486;28;20645;-68
2023/02/02 12:15:08;;;;;;;4.03;2.70;;;6.50;99.90;;;;;;5031519;28;20409;-68
2023/02/02 12:17:41;;;;;;;6.50;3.03;;;6.50;99.90;;;;;;5024969;28;20507;-68
2023/02/02 12:20:25;;;;;;;6.40;2.53;;;6.40;99.90;;;;;;5030232;28;20459;-69
2023/02/02 12:23:28;;;;;;;7.03;3.33;;;6.40;99.90;;;;;;5031327;28;20421;-68
2023/02/02 12:26:11;;;;;;;4.63;2.47;;;6.40;99.90;;;;;;5012039;28;20434;-68
2023/02/02 12:29:04;;;;;;;6.53;2.80;;;6.40;99.90;;;;;;5023444;28;20475;-68
2023/02/02 12:32:06;;;;;;;2.73;2.00;;;6.40;99.90;;;;;;5030378;28;20439;-69
2023/02/02 12:34:56;;;;;;;7.50;2.30;;;6.40;99.90;;;;;;5020351;28;20425;-69
2023/02/02 12:37:44;;;;;;;3.50;2.63;;;6.40;99.90;;;;;;5011301;28;20810;-69
2023/02/02 12:40:16;;;;;;;4.13;2.43;;;6.40;99.90;;;;;;5016739;28;20991;-69
2023/02/02 12:43:12;;;;;;;5.17;3.00;;;6.40;99.90;;;;;;5033802;28;20462;-69
2023/02/02 12:45:44;;;;;;;2.50;2.30;;;6.30;99.90;;;;;;5033564;28;20435;-68
2023/02/02 12:48:31;;;;;;;6.70;2.83;;;6.30;99.90;;;;;;5034058;28;20447;-69
2023/02/02 12:51:21;;;;;;;5.00;3.03;;;6.30;99.90;;;;;;5033060;28;20514;-69
2023/02/02 12:54:04;;;;;;;7.13;1.97;;;6.40;99.90;;;;;;5036069;28;20938;-69
2023/02/02 12:56:58;;;;;;;3.43;2.30;;;6.30;99.90;;;;;;5033162;28;20475;-68
2023/02/02 12:59:42;;;;;;;8.27;2.80;;;6.30;99.90;;;;;;5003375;28;20552;-69
2023/02/02 13:02:26;;;;;;;8.70;2.33;;;6.20;99.90;;;;;;5040707;28;20485;-68
2023/02/02 13:05:01;;;;;;;5.40;2.63;;;6.10;99.90;;;;;;5039522;28;20918;-69
2023/02/02 13:07:39;;;;;;;3.03;2.17;;;6.20;99.90;;;;;;5026066;28;20417;-68
2023/02/02 13:10:13;;;;;;;5.00;2.60;;;6.20;99.90;;;;;;5033564;28;20431;-69
2023/02/02 13:12:49;;;;;;;3.63;2.80;;;6.20;99.90;;;;;;5036913;28;20452;-69
2023/02/02 13:15:22;;;;;;;3.30;2.40;;;6.20;99.90;;;;;;5034185;28;20443;-69
2023/02/02 13:17:55;;;;;;;7.40;3.60;;;6.10;99.90;;;;;;5033705;28;20882;-69
2023/02/02 13:20:39;;;;;;;7.40;2.67;;;6.10;99.90;;;;;;5032364;28;20460;-69
2023/02/02 13:23:14;;;;;;;3.30;2.00;;;6.10;99.90;;;;;;5046388;28;20431;-68
2023/02/02 13:25:46;;;;;;;5.10;2.43;;;6.00;99.90;;;;;;5033406;28;20433;-68
2023/02/02 13:28:24;;;;;;;9.40;3.87;;;6.00;99.90;;;;;;5033131;28;21169;-69